createdAt,value
2022-12-08T00:02:25.330Z,100139.06
2022-12-08T00:08:44.255Z,100127.31
2022-12-08T00:11:13.263Z,100118.69
2022-12-08T00:16:32.228Z,100127.94
2022-12-08T00:19:32.409Z,100128.72
2022-12-08T00:22:45.107Z,100132.19
2022-12-08T00:25:14.063Z,100131.41
2022-12-08T00:27:54.448Z,100130.56
2022-12-08T00:30:25.337Z,100131.44
2022-12-08T00:32:59.909Z,100116.69
2022-12-08T00:38:09.450Z,100125.34
2022-12-08T00:40:36.070Z,100121.06
2022-12-08T00:43:02.712Z,100127.91
2022-12-08T00:45:29.405Z,100117.66
2022-12-08T00:47:56.134Z,100122.88
2022-12-08T00:50:22.765Z,100119.38
2022-12-08T00:52:49.365Z,100111.63
2022-12-08T00:55:16.070Z,100110.97
2022-12-08T00:57:42.694Z,100097.97
2022-12-08T01:00:09.670Z,100103.94
2022-12-08T01:02:36.282Z,100095.44
2022-12-08T01:05:02.944Z,100100.63
2022-12-08T01:07:29.519Z,100101.47
2022-12-08T01:09:57.793Z,100101.53
2022-12-08T01:12:24.494Z,100097.31
2022-12-08T01:14:51.092Z,100100.03
2022-12-08T01:17:17.665Z,100094.97
2022-12-08T01:19:44.346Z,100092.53
2022-12-08T01:22:10.945Z,100095.13
2022-12-08T01:24:37.577Z,100093.50
2022-12-08T01:27:04.254Z,100090.09
2022-12-08T01:29:30.941Z,100089.41
2022-12-08T01:31:57.570Z,100095.50
2022-12-08T01:34:24.218Z,100097.22
2022-12-08T01:36:50.881Z,100085.28
2022-12-08T01:39:18.828Z,100087.06
2022-12-08T01:41:47.551Z,100088.78
2022-12-08T01:44:14.147Z,100088.78
2022-12-08T01:46:42.817Z,100093.22
2022-12-08T01:49:13.987Z,100086.53
2022-12-08T01:51:59.986Z,100084.00
2022-12-08T01:54:29.641Z,100085.75
2022-12-08T01:57:03.534Z,100080.56
2022-12-08T01:59:30.646Z,100082.50
2022-12-08T02:01:57.747Z,100088.41
2022-12-08T02:04:27.725Z,100083.19
2022-12-08T02:06:54.824Z,100076.25
2022-12-08T02:09:22.342Z,100079.78
2022-12-08T02:11:50.651Z,100070.28
2022-12-08T02:14:17.308Z,100072.97
2022-12-08T02:17:14.519Z,100071.22
2022-12-08T02:20:06.625Z,100073.94
2022-12-08T02:22:50.564Z,100072.97
2022-12-08T02:25:26.288Z,100072.97
2022-12-08T02:28:03.960Z,100067.94
2022-12-08T02:30:44.744Z,100063.75
2022-12-08T02:33:43.928Z,100067.16
2022-12-08T02:36:14.225Z,100061.13
2022-12-08T02:39:19.172Z,100055.09
2022-12-08T02:41:52.249Z,100056.06
2022-12-08T02:44:28.242Z,100055.19
2022-12-08T02:46:59.067Z,100055.97
2022-12-08T02:49:35.678Z,100049.00
2022-12-08T02:52:07.384Z,100048.19
2022-12-08T02:54:35.018Z,100038.69
2022-12-08T02:57:32.078Z,100042.13
2022-12-08T03:00:05.284Z,100031.72
2022-12-08T03:03:01.916Z,100029.13
2022-12-08T03:05:53.362Z,100024.81
2022-12-08T03:08:28.978Z,100019.63
2022-12-08T03:11:01.713Z,100018.75
2022-12-08T03:13:56.237Z,100014.53
2022-12-08T03:16:25.893Z,100004.97
2022-12-08T03:19:17.961Z,100004.06
2022-12-08T03:21:47.239Z,100005.78
2022-12-08T03:24:17.972Z,99998.03
2022-12-08T03:26:54.801Z,100000.66
2022-12-08T03:29:21.841Z,99988.50
2022-12-08T03:31:57.662Z,99995.44
2022-12-08T03:34:26.679Z,99989.38
2022-12-08T03:36:53.854Z,99986.81
2022-12-08T03:39:21.849Z,99980.84
2022-12-08T03:41:48.748Z,99968.72
2022-12-08T03:44:15.787Z,99974.72
2022-12-08T03:46:42.565Z,99971.25
2022-12-08T03:49:09.184Z,99971.44
2022-12-08T03:51:35.817Z,99962.03
2022-12-08T03:54:02.416Z,99947.22
2022-12-08T03:56:36.404Z,99950.69
2022-12-08T03:59:03.511Z,99949.72
2022-12-08T04:01:30.307Z,99951.44
2022-12-08T04:03:56.981Z,99951.56
2022-12-08T04:06:23.664Z,99945.50
2022-12-08T04:08:50.767Z,99934.28
2022-12-08T04:11:18.363Z,99936.75
2022-12-08T04:13:45.180Z,99924.63
2022-12-08T04:16:17.000Z,99918.63
2022-12-08T04:18:43.903Z,99919.75
2022-12-08T04:21:10.534Z,99921.31
2022-12-08T04:23:37.199Z,99920.31
2022-12-08T04:26:04.582Z,99917.75
2022-12-08T04:28:31.434Z,99911.69
2022-12-08T04:30:58.285Z,99909.97
2022-12-08T04:33:24.927Z,99900.47
2022-12-08T04:35:51.565Z,99908.34
2022-12-08T04:38:18.368Z,99897.84
2022-12-08T04:40:45.188Z,99902.25
2022-12-08T04:43:11.779Z,99903.09
2022-12-08T04:45:42.782Z,99888.41
2022-12-08T04:48:09.806Z,99893.75
2022-12-08T04:50:39.942Z,99896.44
2022-12-08T04:53:06.552Z,99886.72
2022-12-08T04:55:33.200Z,99884.09
2022-12-08T04:57:59.851Z,99884.09
2022-12-08T05:00:26.515Z,99879.22
2022-12-08T05:02:53.251Z,99875.56
2022-12-08T05:05:19.997Z,99872.97
2022-12-08T05:07:46.644Z,99870.31
2022-12-08T05:10:13.252Z,99871.16
2022-12-08T05:12:39.851Z,99865.13
2022-12-08T05:15:07.089Z,99865.13
2022-12-08T05:17:33.720Z,99866.91
2022-12-08T05:20:00.337Z,99866.13
2022-12-08T05:22:26.932Z,99876.50
2022-12-08T05:24:53.570Z,99874.72
2022-12-08T05:27:20.144Z,99865.22
2022-12-08T05:29:48.147Z,99860.88
2022-12-08T05:32:14.748Z,99861.75
2022-12-08T05:34:41.428Z,99855.84
2022-12-08T05:37:08.044Z,99857.53
2022-12-08T05:39:34.634Z,99854.91
2022-12-08T05:42:01.254Z,99856.63
2022-12-08T05:44:27.984Z,99847.06
2022-12-08T05:46:54.570Z,99852.31
2022-12-08T05:49:21.280Z,99842.97
2022-12-08T05:51:47.997Z,99847.25
2022-12-08T05:54:14.600Z,99851.63
2022-12-08T05:56:41.236Z,99854.13
2022-12-08T05:59:08.132Z,99849.88
2022-12-08T06:01:46.888Z,99840.41
2022-12-08T06:04:13.521Z,99837.00
2022-12-08T06:06:40.137Z,99835.19
2022-12-08T06:09:06.775Z,99836.91
2022-12-08T06:11:33.832Z,99840.47
2022-12-08T06:14:00.461Z,99837.00
2022-12-08T06:16:27.998Z,99836.16
2022-12-08T06:18:55.171Z,99841.28
2022-12-08T06:21:21.781Z,99836.06
2022-12-08T06:23:49.964Z,99841.31
2022-12-08T06:26:16.878Z,99832.59
2022-12-08T06:28:43.650Z,99840.53
2022-12-08T06:31:13.633Z,99842.19
2022-12-08T06:33:40.554Z,99844.00
2022-12-08T06:36:07.533Z,99845.72
2022-12-08T06:38:37.099Z,99850.91
2022-12-08T06:41:06.442Z,99848.28
2022-12-08T06:43:33.327Z,99839.69
2022-12-08T06:46:01.066Z,99839.66
2022-12-08T06:48:27.749Z,99829.28
2022-12-08T06:50:54.348Z,99835.34
2022-12-08T06:53:20.968Z,99837.09
2022-12-08T06:55:59.123Z,99839.84
2022-12-08T06:58:26.464Z,99842.38
2022-12-08T07:00:53.678Z,99843.22
2022-12-08T07:03:20.599Z,99840.63
2022-12-08T07:05:47.242Z,99838.16
2022-12-08T07:08:14.134Z,99839.00
2022-12-08T07:10:40.900Z,99840.63
2022-12-08T07:13:07.524Z,99848.41
2022-12-08T07:15:34.138Z,99839.81
2022-12-08T07:18:00.928Z,99842.38
2022-12-08T07:20:28.053Z,99848.50
2022-12-08T07:22:54.744Z,99842.44
2022-12-08T07:25:21.423Z,99846.75
2022-12-08T07:27:50.128Z,99842.41
2022-12-08T07:30:17.012Z,99836.31
2022-12-08T07:32:43.811Z,99843.28
2022-12-08T07:35:10.568Z,99846.84
2022-12-08T07:37:37.615Z,99845.09
2022-12-08T07:40:06.370Z,99852.03
2022-12-08T07:42:33.253Z,99841.66
2022-12-08T07:45:00.665Z,99833.03
2022-12-08T07:47:27.432Z,99837.38
2022-12-08T07:49:54.090Z,99842.56
2022-12-08T07:52:20.712Z,99833.06
2022-12-08T07:54:47.630Z,99833.91
2022-12-08T07:57:15.407Z,99827.84
2022-12-08T07:59:41.998Z,99831.38
2022-12-08T08:02:24.680Z,99828.84
2022-12-08T08:04:52.402Z,99833.19
2022-12-08T08:07:19.103Z,99831.44
2022-12-08T08:09:45.929Z,99833.19
2022-12-08T08:15:03.518Z,99843.63
2022-12-08T08:17:30.674Z,99836.69
2022-12-08T08:19:57.544Z,99847.16
2022-12-08T08:22:25.248Z,99841.16
2022-12-08T08:24:52.111Z,99839.41
2022-12-08T08:27:18.980Z,99845.53
2022-12-08T08:29:45.655Z,99851.66
2022-12-08T08:32:12.343Z,99848.13
2022-12-08T08:34:39.021Z,99845.47
2022-12-08T08:37:05.879Z,99841.13
2022-12-08T08:39:32.543Z,99833.41
2022-12-08T08:41:59.234Z,99838.59
2022-12-08T08:44:25.809Z,99837.78
2022-12-08T08:46:52.503Z,99838.66
2022-12-08T08:49:19.173Z,99828.25
2022-12-08T08:51:46.034Z,99824.84
2022-12-08T08:54:12.670Z,99830.94
2022-12-08T08:56:39.273Z,99834.41
2022-12-08T08:59:05.918Z,99833.53
2022-12-08T09:01:32.620Z,99833.53
2022-12-08T09:03:59.365Z,99844.00
2022-12-08T09:06:28.254Z,99829.25
2022-12-08T09:08:55.056Z,99833.59
2022-12-08T09:11:23.484Z,99826.66
2022-12-08T09:13:51.647Z,99831.81
2022-12-08T09:16:21.141Z,99826.59
2022-12-08T09:18:49.442Z,99826.69
2022-12-08T09:21:22.422Z,99814.53
2022-12-08T09:23:50.106Z,99819.78
2022-12-08T09:26:16.946Z,99817.19
2022-12-08T09:28:46.571Z,99817.25
2022-12-08T09:31:14.378Z,99824.16
2022-12-08T09:33:41.156Z,99815.47
2022-12-08T09:36:08.143Z,99813.75
2022-12-08T09:38:34.761Z,99814.56
2022-12-08T09:41:03.485Z,99810.25
2022-12-08T09:43:51.887Z,99808.50
2022-12-08T09:46:19.405Z,99809.41
2022-12-08T09:48:57.609Z,99806.78
2022-12-08T09:51:25.583Z,99811.13
2022-12-08T09:53:56.748Z,99799.81
2022-12-08T09:56:27.675Z,99798.13
2022-12-08T09:59:03.385Z,99790.31
2022-12-08T10:01:33.702Z,99806.81
2022-12-08T10:04:01.136Z,99799.00
2022-12-08T10:06:39.432Z,99797.22
2022-12-08T10:09:24.667Z,99788.56
2022-12-08T10:12:00.981Z,99794.66
2022-12-08T10:14:47.329Z,99795.53
2022-12-08T10:17:21.435Z,99802.47
2022-12-08T10:19:49.600Z,99793.78
2022-12-08T10:22:21.719Z,99793.78
2022-12-08T10:24:54.586Z,99791.19
2022-12-08T10:27:21.338Z,99800.72
2022-12-08T10:29:47.972Z,99795.50
2022-12-08T10:32:23.280Z,99784.22
2022-12-08T10:35:20.375Z,99787.72
2022-12-08T10:38:00.762Z,99782.50
2022-12-08T10:40:29.597Z,99784.28
2022-12-08T10:42:58.139Z,99790.34
2022-12-08T10:45:30.128Z,99786.00
2022-12-08T10:48:03.558Z,99791.22
2022-12-08T10:50:44.478Z,99786.88
2022-12-08T10:53:36.348Z,99779.91
2022-12-08T10:56:02.975Z,99774.69
2022-12-08T10:58:40.885Z,99779.03
2022-12-08T11:01:24.528Z,99781.66
2022-12-08T11:03:58.066Z,99784.22
2022-12-08T11:06:35.110Z,99791.19
2022-12-08T11:09:05.084Z,99793.78
2022-12-08T11:11:39.513Z,99792.91
2022-12-08T11:14:09.184Z,99785.09
2022-12-08T11:16:35.918Z,99783.38
2022-12-08T11:19:06.689Z,99779.03
2022-12-08T11:21:37.436Z,99786.00
2022-12-08T11:24:16.371Z,99779.09
2022-12-08T11:27:04.260Z,99781.69
2022-12-08T11:29:32.969Z,99778.19
2022-12-08T11:32:09.170Z,99780.84
2022-12-08T11:34:45.992Z,99784.31
2022-12-08T11:37:18.939Z,99785.16
2022-12-08T11:39:49.517Z,99766.06
2022-12-08T11:42:19.793Z,99768.69
2022-12-08T11:44:59.682Z,99775.63
2022-12-08T11:47:39.198Z,99777.38
2022-12-08T11:50:20.026Z,99771.28
2022-12-08T11:52:57.068Z,99775.63
2022-12-08T11:55:37.107Z,99780.84
2022-12-08T11:58:21.359Z,99773.91
2022-12-08T12:00:49.269Z,99777.34
2022-12-08T12:03:34.954Z,99774.75
2022-12-08T12:09:15.670Z,99773.00
2022-12-08T12:12:14.368Z,99772.13
2022-12-08T12:15:15.915Z,99769.53
2022-12-08T12:17:50.867Z,99767.81
2022-12-08T12:20:39.274Z,99766.94
2022-12-08T12:23:35.464Z,99767.78
2022-12-08T12:26:06.247Z,99772.13
2022-12-08T12:28:42.530Z,99766.97
2022-12-08T12:31:12.502Z,99770.41
2022-12-08T12:33:39.306Z,99769.56
2022-12-08T12:36:08.096Z,99760.91
2022-12-08T12:38:54.906Z,99759.19
2022-12-08T12:41:28.090Z,99766.09
2022-12-08T12:44:14.949Z,99765.25
2022-12-08T12:46:50.653Z,99763.50
2022-12-08T12:49:39.365Z,99771.31
2022-12-08T12:52:15.191Z,99769.56
2022-12-08T12:55:05.668Z,99775.66
2022-12-08T12:57:40.005Z,99762.63
2022-12-08T13:00:08.028Z,99762.63
2022-12-08T13:02:48.676Z,99764.34
2022-12-08T13:05:22.178Z,99767.84
2022-12-08T13:08:04.113Z,99766.97
2022-12-08T13:10:33.472Z,99763.50
2022-12-08T13:13:06.622Z,99762.63
2022-12-08T13:15:41.807Z,99764.31
2022-12-08T13:18:25.733Z,99765.22
2022-12-08T13:20:57.615Z,99756.53
2022-12-08T13:23:49.856Z,99768.66
2022-12-08T13:26:24.953Z,99766.94
2022-12-08T13:29:03.924Z,99775.63
2022-12-08T13:31:51.241Z,99767.81
2022-12-08T13:34:36.970Z,99766.97
2022-12-08T13:37:13.514Z,99768.69
2022-12-08T13:39:40.125Z,99777.34
2022-12-08T13:42:07.932Z,99780.84
2022-12-08T13:47:34.760Z,99773.91
2022-12-08T13:58:38.280Z,99784.28
2022-12-08T14:01:09.275Z,99780.81
2022-12-08T14:06:49.200Z,99793.84
2022-12-08T14:09:17.911Z,99792.94
2022-12-08T14:11:52.585Z,99798.13
2022-12-08T14:15:00.714Z,99802.41
2022-12-08T14:17:18.151Z,99810.16
2022-12-08T14:19:53.694Z,99811.91
2022-12-08T14:22:20.288Z,99806.66
2022-12-08T14:24:50.213Z,99806.63
2022-12-08T14:27:19.845Z,99817.03
2022-12-08T14:29:52.927Z,99809.19
2022-12-08T14:32:23.977Z,99812.66
2022-12-08T14:35:25.250Z,99816.97
2022-12-08T14:37:55.757Z,99817.81
2022-12-08T14:40:25.566Z,99826.47
2022-12-08T14:43:16.712Z,99825.59
2022-12-08T14:45:43.191Z,99822.97
2022-12-08T14:48:36.248Z,99838.59
2022-12-08T14:51:06.003Z,99834.22
2022-12-08T14:53:39.848Z,99830.75
2022-12-08T14:56:20.664Z,99841.16
2022-12-08T14:58:49.522Z,99835.94
2022-12-08T15:01:21.988Z,99831.63
2022-12-08T15:03:51.144Z,99844.59
2022-12-08T15:06:20.543Z,99840.25
2022-12-08T15:08:58.700Z,99834.16
2022-12-08T15:11:31.612Z,99838.50
2022-12-08T15:13:58.197Z,99840.25
2022-12-08T15:16:28.017Z,99834.97
2022-12-08T15:19:16.309Z,99841.88
2022-12-08T15:21:44.598Z,99836.69
2022-12-08T15:24:12.762Z,99837.56
2022-12-08T15:26:47.262Z,99838.38
2022-12-08T15:29:22.852Z,99850.44
2022-12-08T15:31:50.339Z,99848.63
2022-12-08T15:34:17.037Z,99851.22
2022-12-08T15:36:45.729Z,99850.34
2022-12-08T15:39:34.749Z,99852.19
2022-12-08T15:42:02.364Z,99849.50
2022-12-08T15:44:29.401Z,99855.56
2022-12-08T15:46:56.283Z,99859.03
2022-12-08T15:49:24.111Z,99858.16
2022-12-08T15:51:55.689Z,99852.09
2022-12-08T15:54:27.348Z,99850.38
2022-12-08T15:57:18.724Z,99847.78
2022-12-08T15:59:43.204Z,99847.78
2022-12-08T16:02:14.540Z,99845.19
2022-12-08T16:07:30.247Z,99842.56
2022-12-08T16:09:57.221Z,99842.56
2022-12-08T16:18:24.146Z,99851.16
2022-12-08T16:21:12.478Z,99858.09
2022-12-08T16:23:45.497Z,99850.31
2022-12-08T16:26:28.365Z,99861.63
2022-12-08T16:29:02.252Z,99856.41
2022-12-08T16:31:29.022Z,99861.63
2022-12-08T16:33:55.840Z,99862.50
2022-12-08T16:36:22.398Z,99867.69
2022-12-08T16:38:49.021Z,99878.94
2022-12-08T16:41:35.222Z,99865.94
2022-12-08T16:44:03.007Z,99872.81
2022-12-08T16:46:29.738Z,99865.91
2022-12-08T16:48:59.366Z,99866.03
2022-12-08T16:51:27.381Z,99869.44
2022-12-08T16:53:55.446Z,99863.34
2022-12-08T16:56:26.198Z,99869.44
2022-12-08T16:58:57.233Z,99878.97
2022-12-08T17:01:23.935Z,99873.88
2022-12-08T17:04:07.509Z,99882.63
2022-12-08T17:06:37.093Z,99875.69
2022-12-08T17:09:03.720Z,99876.59
2022-12-08T17:11:37.491Z,99882.69
2022-12-08T17:14:05.921Z,99880.13
2022-12-08T17:16:32.573Z,99885.28
2022-12-08T17:18:59.307Z,99884.47
2022-12-08T17:21:25.969Z,99883.53
2022-12-08T17:23:52.737Z,99886.22
2022-12-08T17:26:19.440Z,99886.22
2022-12-08T17:29:02.015Z,99886.28
2022-12-08T17:31:30.880Z,99888.00
2022-12-08T17:33:59.847Z,99895.72
2022-12-08T17:36:26.457Z,99896.53
2022-12-08T17:38:53.136Z,99900.94
2022-12-08T17:41:19.711Z,99891.25
2022-12-08T17:43:46.346Z,99900.81
2022-12-08T17:46:19.749Z,99903.31
2022-12-08T17:48:46.673Z,99898.88
2022-12-08T17:51:13.509Z,99904.84
2022-12-08T17:53:40.768Z,99904.91
2022-12-08T17:56:14.712Z,99908.31
2022-12-08T17:58:41.381Z,99908.28
2022-12-08T18:01:17.156Z,99897.88
2022-12-08T18:04:01.949Z,99906.50
2022-12-08T18:06:31.365Z,99902.97
2022-12-08T18:08:59.901Z,99908.13
2022-12-08T18:11:27.688Z,99900.41
2022-12-08T18:13:55.424Z,99908.94
2022-12-08T18:16:24.562Z,99902.00
2022-12-08T18:18:51.424Z,99903.72
2022-12-08T18:21:23.265Z,99908.13
2022-12-08T18:23:50.611Z,99907.13
2022-12-08T18:26:17.380Z,99921.81
2022-12-08T18:28:44.142Z,99906.25
2022-12-08T18:31:17.241Z,99903.66
2022-12-08T18:33:45.249Z,99903.63
2022-12-08T18:36:14.030Z,99915.72
2022-12-08T18:38:40.965Z,99919.13
2022-12-08T18:41:09.053Z,99917.50
2022-12-08T18:43:36.438Z,99917.47
2022-12-08T18:46:04.775Z,99924.34
2022-12-08T18:48:31.406Z,99926.13
2022-12-08T18:50:58.018Z,99919.19
2022-12-08T18:53:24.697Z,99924.41
2022-12-08T18:55:51.354Z,99929.66
2022-12-08T18:58:18.646Z,99923.59
2022-12-08T19:00:45.247Z,99929.66
2022-12-08T19:03:11.872Z,99931.41
2022-12-08T19:05:38.753Z,99928.81
2022-12-08T19:08:06.392Z,99934.88
2022-12-08T19:10:35.541Z,99934.88
2022-12-08T19:13:02.187Z,99934.00
2022-12-08T19:15:28.934Z,99934.03
2022-12-08T19:17:55.653Z,99935.75
2022-12-08T19:20:22.275Z,99943.53
2022-12-08T19:22:48.832Z,99947.94
2022-12-08T19:25:15.563Z,99947.09
2022-12-08T19:27:42.226Z,99949.78
2022-12-08T19:30:10.386Z,99954.09
2022-12-08T19:32:37.034Z,99955.75
2022-12-08T19:35:07.359Z,99950.56
2022-12-08T19:37:34.942Z,99961.88
2022-12-08T19:40:20.267Z,99961.00
2022-12-08T19:43:05.598Z,99963.59
2022-12-08T19:45:35.358Z,99961.00
2022-12-08T19:48:01.999Z,99962.69
2022-12-08T19:50:37.771Z,99957.50
2022-12-08T19:53:13.013Z,99953.22
2022-12-08T19:55:39.903Z,99970.53
2022-12-08T19:58:07.426Z,99966.19
2022-12-08T20:00:35.298Z,99966.22
2022-12-08T20:03:02.679Z,99974.03
2022-12-08T20:05:31.188Z,99965.34
2022-12-08T20:07:58.358Z,99969.75
2022-12-08T20:10:28.268Z,99973.22
2022-12-08T20:13:13.999Z,99977.47
2022-12-08T20:15:40.849Z,99975.75
2022-12-08T20:18:07.663Z,99979.19
2022-12-08T20:20:34.408Z,99977.50
2022-12-08T20:23:01.239Z,99984.41
2022-12-08T20:25:27.905Z,99979.19
2022-12-08T20:27:54.553Z,99983.53
2022-12-08T20:30:21.177Z,99997.41
2022-12-08T20:32:47.746Z,99984.41
2022-12-08T20:35:15.585Z,99995.69
2022-12-08T20:37:42.663Z,99991.38
2022-12-08T20:40:09.671Z,99995.72
2022-12-08T20:42:36.232Z,100002.69
2022-12-08T20:45:06.305Z,100006.97
2022-12-08T20:47:33.351Z,99998.38
2022-12-08T20:49:59.953Z,100005.25
2022-12-08T20:52:26.670Z,100004.41
2022-12-08T20:54:53.325Z,100015.75
2022-12-08T20:57:20.177Z,100005.28
2022-12-08T20:59:46.911Z,100011.34
2022-12-08T21:02:13.735Z,100008.75
2022-12-08T21:04:40.471Z,100003.56
2022-12-08T21:07:09.004Z,100003.53
2022-12-08T21:09:36.634Z,100006.97
2022-12-08T21:12:03.441Z,100010.44
2022-12-08T21:14:30.023Z,100009.59
2022-12-08T21:16:56.799Z,100011.25
2022-12-08T21:19:24.112Z,100012.13
2022-12-08T21:21:50.996Z,100012.97
2022-12-08T21:24:18.760Z,100019.00
2022-12-08T21:26:45.569Z,100022.47
2022-12-08T21:29:12.735Z,100024.22
2022-12-08T21:31:39.722Z,100021.69
2022-12-08T21:34:06.451Z,100026.78
2022-12-08T21:36:33.162Z,100029.38
2022-12-08T21:39:02.772Z,100029.31
2022-12-08T21:41:48.311Z,100036.22
2022-12-08T21:44:18.705Z,100037.09
2022-12-08T21:46:45.902Z,100030.13
2022-12-08T21:49:12.939Z,100040.53
2022-12-08T21:51:42.214Z,100044.00
2022-12-08T21:54:18.680Z,100040.56
2022-12-08T21:56:46.693Z,100050.06
2022-12-08T21:59:13.556Z,100046.63
2022-12-08T22:01:40.467Z,100045.75
2022-12-08T22:04:07.570Z,100046.63
2022-12-08T22:06:34.642Z,100051.81
2022-12-08T22:09:01.342Z,100057.09
2022-12-08T22:11:28.288Z,100045.72
2022-12-08T22:13:58.000Z,100050.94
2022-12-08T22:16:24.669Z,100046.63
2022-12-08T22:18:53.868Z,100050.22
2022-12-08T22:21:20.725Z,100044.13
2022-12-08T22:23:47.499Z,100050.16
2022-12-08T22:26:14.397Z,100055.41
2022-12-08T22:28:42.690Z,100051.06
2022-12-08T22:31:10.676Z,100044.09
2022-12-08T22:33:38.928Z,100049.28
2022-12-08T22:36:10.642Z,100049.28
2022-12-08T22:38:37.978Z,100040.63
2022-12-08T22:41:05.866Z,100048.44
2022-12-08T22:43:33.531Z,100045.78
2022-12-08T22:46:00.289Z,100046.63
2022-12-08T22:48:27.064Z,100051.78
2022-12-08T22:51:00.499Z,100049.13
2022-12-08T22:53:27.420Z,100049.00
2022-12-08T22:55:54.624Z,100060.22
2022-12-08T22:58:21.862Z,100059.25
2022-12-08T23:00:48.758Z,100055.53
2022-12-08T23:03:15.667Z,100057.91
2022-12-08T23:05:42.834Z,100063.94
2022-12-08T23:08:13.944Z,100057.09
2022-12-08T23:10:41.182Z,100055.44
2022-12-08T23:13:08.379Z,100056.06
2022-12-08T23:15:35.181Z,100054.22
2022-12-08T23:18:02.099Z,100059.31
2022-12-08T23:20:28.823Z,100053.09
2022-12-08T23:22:56.302Z,100070.31
2022-12-08T23:25:23.069Z,100060.72
2022-12-08T23:27:49.905Z,100058.13
2022-12-08T23:30:16.794Z,100060.81
2022-12-08T23:32:43.604Z,100057.16
2022-12-08T23:35:10.994Z,100060.56
2022-12-08T23:37:37.894Z,100056.16
2022-12-08T23:40:06.455Z,100061.31
2022-12-08T23:42:33.514Z,100051.75
2022-12-08T23:45:00.350Z,100055.28
2022-12-08T23:47:27.370Z,100067.38
2022-12-08T23:49:54.283Z,100058.72
2022-12-08T23:52:21.070Z,100053.47
2022-12-08T23:54:50.300Z,100051.66
2022-12-08T23:57:17.126Z,100061.97
2022-12-08T23:59:44.185Z,100057.69
